x

East Dellwood (46207) Wave Buoy

5:00am - Mon 30th May 2016 All times are PDT. -7 hours from GMT.

  • Sig Wave height 3.3ft
  • Peak Period 13s
  • Wind
    7mph, 9mph gusts
  • Sea Temp 55°f
  • Air Temp 51°f
  • Sea Pressure 1026.1mb
  • East Dellwood
  • East Dellwood

More Historic Weather Station data

Upgrade to MSW Pro to gain access to the past 30 days of data for over 8000 Wavebouys and Weather Stations around the globe.

Join Pro

Comparision Forecast

View Surf forecast
   
Mon 05/30 5:00am 3.5ft 13s 7 9 mph 1026.1mb 55f 51f
4:00am 3ft 11s 9 11 mph 1026.2mb 55f 51f
3:00am 3ft 11s 7 9 mph 1026mb 55f 51f
2:00am 3ft 6s 4 7 mph 1026mb 55f 51f
1:00am 3ft 11s 4 7 mph 1025.9mb 55f 50f
12:00am 3ft 6s 2 4 mph 1025.9mb 55f 50f
Sun 05/29 11:00pm 3ft 12s 2
mph
1025.7mb 55f 50f
10:00pm 3.5ft 7s 4 7 mph 1025.2mb 55f 53f
9:00pm 3ft 13s 2 4 mph 1024.6mb 55f 53f
8:00pm 3.5ft 12s  -  2 mph 1024.5mb 55f 53f
7:00pm 3.5ft 12s 4
mph
1024.3mb 55f 53f
6:00pm 3.5ft 12s 7 9 mph 1024.3mb 55f 53f
5:00pm 3.5ft 20s 9 11 mph 1024.2mb 55f 53f
4:00pm 3.5ft 7s 9 11 mph 1024mb 55f 53f
3:00pm 3.5ft 7s 7 9 mph 1023.9mb 55f 52f
2:00pm 3.5ft 7s 9 11 mph 1023.5mb 54f 52f
1:00pm 3.5ft 7s 9 13 mph 1023.1mb 54f 52f
12:00pm 3.5ft 7s 9 11 mph 1022.5mb 54f 52f
11:00am 4ft 7s 9 11 mph 1021.8mb 54f 53f
10:00am 4ft 7s 11 13 mph 1021.3mb 54f 52f
9:00am 4ft 7s 13 18 mph 1020.7mb 54f 53f
8:00am 4ft 7s 13 16 mph 1020.3mb 54f 52f
7:00am 3.5ft 6s 13 18 mph 1019.8mb 54f 52f
6:00am 3.5ft 14s 16 18 mph 1019.2mb 54f 52f
5:00am 3.5ft 14s 13 18 mph 1018.9mb 54f 52f
4:00am 3.5ft 6s 13 18 mph 1018.6mb 54f 52f
3:00am 3.5ft 5s 13 18 mph 1018.3mb 54f 52f
2:00am 3.5ft 5s 13 16 mph 1018.1mb 54f 52f
1:00am 3.5ft 14s 13 16 mph 1017.9mb 54f 52f
12:00am 3.5ft 14s 11 13 mph 1017.7mb 54f 52f
Sat 05/28 11:00pm 3.5ft 14s 13 16 mph 1017.7mb 54f 52f
10:00pm 3.5ft 14s 13
mph
1017.3mb 54f 52f
9:00pm 3ft 14s 13 16 mph 1016.8mb 54f 52f
8:00pm 2.5ft 7s 13 16 mph 1016.5mb 54f 53f
7:00pm 2.5ft 6s 11 13 mph 1016.1mb 54f 53f
6:00pm 2.5ft 15s 11 13 mph 1015.8mb 54f 53f
5:00pm 2.5ft 7s 11 13 mph 1015.6mb 54f 52f
4:00pm 2.5ft 7s 11 13 mph 1015.7mb 54f 53f
3:00pm 2.5ft 7s 11 13 mph 1015.6mb 54f 52f
2:00pm 2.5ft 8s 9 11 mph 1015.5mb 54f 52f
1:00pm 2.5ft 7s 9 11 mph 1015.3mb 54f 52f
12:00pm 2.5ft 7s 9 11 mph 1014.8mb 54f 52f
11:00am 2.5ft 8s 9 11 mph 1014.4mb 54f 51f
10:00am 2.5ft 15s 11 13 mph 1014.3mb 53f 51f
9:00am 2.5ft 15s 11
mph
1014.2mb 53f 51f
8:00am 2.5ft 15s 11 13 mph 1014.1mb 53f 51f
7:00am 2.5ft 15s 9 11 mph 1014.2mb 53f 51f
6:00am 2.5ft 7s 9
mph
1014.1mb 53f 50f
5:00am 2.5ft 15s 7 9 mph 1014.2mb 53f 50f
4:00am 2.5ft 5s 7 9 mph 1014.5mb 53f 49f
3:00am 3ft 5s 13 16 mph 1014.7mb 53f 49f
2:00am 3.5ft 8s 9 11 mph 1015.3mb 53f 49f
1:00am 3.5ft 5s 9
mph
1015.6mb 53f 49f
12:00am 3.5ft 6s 7 9 mph 1016mb 53f 49f
Fri 05/27 11:00pm 3.5ft 5s 7 9 mph 1016.4mb 53f 49f
10:00pm 4ft 5s 9
mph
1016.4mb 53f 49f
9:00pm 4ft 5s 7 11 mph 1016.3mb 53f 49f
8:00pm 3.5ft 5s 4 9 mph 1016.9mb 53f 49f
7:00pm 3.5ft 6s 7
mph
1017.2mb 53f 49f
6:00pm 4ft 5s 7 9 mph 1017.5mb 53f 50f
5:00pm 4.5ft 7s 11 13 mph 1017.9mb 53f 50f
4:00pm 4.5ft 7s 16 18 mph 1018.2mb 53f 50f
3:00pm 4.5ft 5s 18 20 mph 1018.5mb 54f 50f
2:00pm 4.5ft 8s 18 20 mph 1018.6mb 54f 50f
1:00pm 4.5ft 8s 13 18 mph 1018.9mb 53f 49f
12:00pm 4.5ft 8s 18 20 mph 1018.9mb 53f 50f
11:00am 4.5ft 8s 16 20 mph 1019.2mb 53f 50f
10:00am 4.5ft 7s 18 25 mph 1019.4mb 53f 49f
9:00am 4.5ft 7s 13 18 mph 1019.7mb 53f 50f
8:00am 4.5ft 8s 9 11 mph 1019.9mb 53f 49f
3:00am 4.5ft 9s 13 18 mph 1021.2mb 53f 51f
2:00am 5ft 9s 16 18 mph 1021.6mb 53f 51f
1:00am 5ft 7s 11 13 mph 1021.9mb 53f 51f
12:00am 5ft 8s 16 18 mph 1022.4mb 53f 51f
Thu 05/26 11:00pm 6ft 7s 16 18 mph 1022.8mb 53f 51f
10:00pm 6ft 7s 16 20 mph 1022.9mb 53f 51f
9:00pm 5.5ft 6s 18 20 mph 1022.7mb 53f 51f
8:00pm 6ft 6s 18 22 mph 1022.9mb 53f 51f
7:00pm 6ft 6s 18 22 mph 1023mb 54f 51f
6:00pm 6ft 6s 18 22 mph 1023.2mb 54f 51f
5:00pm 5.5ft 6s 18 22 mph 1023.5mb 54f 51f
2:00pm 5ft 6s 20 22 mph 1024mb 53f 51f